Time;durP1;ratioP1;P1;durP2;ratioP2;P2;SDS_P1;SDS_P2;PMS_P1;PMS_P2;Temp;Humidity;BMP_temperature;BMP_pressure;BME280_temperature;BME280_humidity;BME280_pressure;Samples;Min_cycle;Max_cycle;Signal;HPM_P1;HPM_P2
2021/11/20 00:02:27;;;;;;;9.70;2.60;;;;;;;12.73;100.00;100017.06;714264;1200;116452;-74
2021/11/20 00:17:29;;;;;;;6.98;2.90;;;;;;;12.81;100.00;100048.72;714458;1182;115017;-74
2021/11/20 00:32:37;;;;;;;8.60;3.20;;;;;;;12.78;100.00;100054.28;714329;1200;114705;-74
2021/11/20 00:47:40;;;;;;;7.08;2.23;;;;;;;12.73;100.00;100046.02;714204;1175;113913;-73
2021/11/20 01:02:42;;;;;;;7.15;1.90;;;;;;;12.49;98.52;100060.66;714191;1200;113884;-74
2021/11/20 01:17:45;;;;;;;8.20;2.90;;;;;;;12.58;97.89;100084.42;713851;1200;114780;-74
2021/11/20 01:32:47;;;;;;;13.00;3.15;;;;;;;12.33;97.36;100094.74;713678;1176;114657;-74
2021/11/20 01:48:11;;;;;;;8.07;1.97;;;;;;;12.20;97.98;100078.52;713798;1205;113991;-74
2021/11/20 02:03:40;;;;;;;9.90;2.45;;;;;;;12.19;96.89;100103.97;713879;1202;113803;-74
2021/11/20 02:18:47;;;;;;;10.53;3.68;;;;;;;11.95;98.13;100112.45;713650;1177;113760;-74
2021/11/20 02:33:51;;;;;;;16.77;2.87;;;;;;;11.75;98.84;100138.81;713961;1200;113972;-74
2021/11/20 02:48:54;;;;;;;10.53;2.10;;;;;;;11.59;99.13;100157.02;713613;1203;114536;-73
2021/11/20 03:03:57;;;;;;;9.10;2.18;;;;;;;11.36;99.73;100164.42;713658;1200;114986;-73
2021/11/20 03:19:00;;;;;;;14.50;3.80;;;;;;;11.35;99.05;100176.74;713714;1203;115306;-73
2021/11/20 03:34:04;;;;;;;10.28;2.75;;;;;;;11.30;97.76;100200.78;713758;1199;114165;-73
2021/11/20 03:49:07;;;;;;;8.88;3.28;;;;;;;11.03;97.64;100206.77;713674;1200;114805;-74
2021/11/20 04:04:09;;;;;;;11.53;2.70;;;;;;;10.91;98.08;100218.39;713780;1199;114596;-73
2021/11/20 04:19:11;;;;;;;12.15;2.78;;;;;;;10.88;97.17;100255.42;713721;1200;114387;-74
2021/11/20 04:34:14;;;;;;;16.37;3.70;;;;;;;10.76;97.16;100257.35;713619;1200;113798;-74
2021/11/20 04:49:16;;;;;;;14.18;3.05;;;;;;;10.50;97.42;100260.48;713679;1202;114732;-73
2021/11/20 05:04:18;;;;;;;9.10;2.98;;;;;;;10.49;97.30;100282.42;714005;1178;114232;-73
2021/11/20 05:19:21;;;;;;;11.30;2.30;;;;;;;10.25;99.18;100301.09;713940;1204;115642;-75
2021/11/20 05:34:23;;;;;;;23.10;6.00;;;;;;;10.37;98.91;100315.79;713701;1177;113704;-75
2021/11/20 05:49:28;;;;;;;74.65;20.70;;;;;;;10.18;98.88;100340.13;713676;1177;113925;-75
2021/11/20 06:04:31;;;;;;;41.93;16.00;;;;;;;10.03;99.65;100350.14;713944;1203;114817;-74
2021/11/20 06:19:34;;;;;;;63.95;31.90;;;;;;;9.91;100.00;100362.48;714674;1200;115290;-73
2021/11/20 06:34:37;;;;;;;43.10;19.03;;;;;;;9.75;100.00;100368.18;713921;1200;114409;-74
2021/11/20 06:49:40;;;;;;;39.80;15.98;;;;;;;9.80;100.00;100397.42;714123;1199;114003;-74
2021/11/20 07:04:42;;;;;;;86.30;26.83;;;;;;;9.92;100.00;100397.37;714767;1200;114783;-74
2021/11/20 07:19:45;;;;;;;28.95;7.15;;;;;;;9.97;100.00;100416.98;713882;1202;114219;-74
2021/11/20 07:34:47;;;;;;;19.83;4.73;;;;;;;10.18;100.00;100434.50;715675;1204;113812;-74
2021/11/20 07:49:49;;;;;;;24.33;5.75;;;;;;;10.63;100.00;100446.49;714598;1185;114436;-74
2021/11/20 08:04:52;;;;;;;24.90;8.08;;;;;;;11.28;100.00;100438.25;714370;1206;115234;-73
2021/11/20 08:19:54;;;;;;;18.47;6.37;;;;;;;11.74;98.60;100428.86;715323;1177;114010;-72
2021/11/20 08:34:58;;;;;;;18.40;7.80;;;;;;;12.28;96.69;100416.06;714104;1177;113833;-73
2021/11/20 08:50:02;;;;;;;21.40;6.30;;;;;;;12.88;94.86;100406.12;714163;1177;113961;-70
2021/11/20 09:05:27;;;;;;;13.83;5.18;;;;;;;12.67;91.24;100419.53;714219;1174;113930;-70
2021/11/20 09:20:30;;;;;;;141.13;66.10;;;;;;;13.62;90.33;100423.52;714377;1199;115167;-70
2021/11/20 09:35:34;;;;;;;41.10;19.23;;;;;;;12.64;84.80;100439.06;715979;1203;114304;-73
2021/11/20 09:50:53;;;;;;;105.67;45.80;;;;;;;12.86;86.65;100405.45;714713;1202;114224;-73
2021/11/20 10:06:10;;;;;;;53.50;23.67;;;;;;;12.96;86.52;100425.48;715653;1203;114918;-70
2021/11/20 10:21:19;;;;;;;25.97;8.97;;;;;;;12.49;87.36;100436.91;714114;1177;114193;-71
2021/11/20 10:36:48;;;;;;;18.37;4.97;;;;;;;12.42;88.81;100427.94;714116;1199;115073;-72
2021/11/20 10:52:07;;;;;;;18.20;5.03;;;;;;;12.88;88.14;100414.02;715167;1203;114140;-71
2021/11/20 11:07:17;;;;;;;;;;;;;;;13.25;84.97;100392.86;714308;1191;113993;-72
2021/11/20 11:22:39;;;;;;;20.80;8.35;;;;;;;13.02;84.90;100360.85;714426;1198;99436;-74
2021/11/20 11:37:58;;;;;;;19.03;8.10;;;;;;;12.90;83.39;100343.63;714242;1189;113847;-71
2021/11/20 11:53:21;;;;;;;35.60;15.30;;;;;;;12.80;85.06;100322.61;714726;1200;114224;-71
2021/11/20 12:08:36;;;;;;;23.60;10.80;;;;;;;12.70;85.86;100299.00;714319;1178;114268;-72
2021/11/20 12:23:52;;;;;;;15.38;6.78;;;;;;;12.55;87.80;100282.05;714454;1174;114035;-73
2021/11/20 12:39:07;;;;;;;21.07;10.33;;;;;;;12.44;90.87;100268.13;714247;1176;114148;-82
2021/11/20 12:54:22;;;;;;;24.23;11.83;;;;;;;12.37;93.06;100232.88;714559;1200;115615;-73
2021/11/20 13:09:30;;;;;;;42.73;17.70;;;;;;;12.07;99.00;100220.87;714070;1177;113998;-73
2021/11/20 13:24:38;;;;;;;24.20;12.78;;;;;;;11.86;100.00;100186.91;714273;1202;115228;-73
2021/11/20 13:39:40;;;;;;;36.93;14.33;;;;;;;12.14;100.00;100164.07;714249;1200;114848;-72
2021/11/20 13:54:56;;;;;;;34.38;12.00;;;;;;;12.26;100.00;100148.91;714292;1179;114293;-73
2021/11/20 14:10:01;;;;;;;18.38;7.93;;;;;;;12.32;100.00;100140.42;714326;1200;114313;-74
2021/11/20 14:25:25;;;;;;;20.83;8.53;;;;;;;12.34;100.00;100113.97;714277;1200;115886;-73
2021/11/20 14:40:29;;;;;;;50.83;24.28;;;;;;;12.44;100.00;100119.98;714030;1200;114534;-73
2021/11/20 14:55:42;;;;;;;12.80;6.33;;;;;;;12.52;100.00;100108.70;714397;1200;114475;-73
2021/11/20 15:10:44;;;;;;;19.60;13.07;;;;;;;12.13;100.00;100099.33;714008;1188;114650;-72
2021/11/20 15:25:47;;;;;;;11.53;6.40;;;;;;;12.01;100.00;100074.22;714454;1200;114448;-73
2021/11/20 15:40:49;;;;;;;14.73;7.08;;;;;;;11.97;100.00;100053.50;714135;1200;115351;-72
2021/11/20 15:55:52;;;;;;;9.88;6.65;;;;;;;11.99;100.00;100043.64;714372;1178;114193;-72
2021/11/20 16:10:55;;;;;;;9.87;6.20;;;;;;;12.03;100.00;100027.59;714499;1178;114208;-73
2021/11/20 16:26:02;;;;;;;21.87;12.93;;;;;;;12.10;100.00;100004.95;714369;1177;114397;-72
2021/11/20 16:41:04;;;;;;;61.87;30.70;;;;;;;12.06;100.00;100006.24;714605;1201;114278;-73
2021/11/20 16:56:11;;;;;;;20.15;9.30;;;;;;;12.01;100.00;99984.84;714700;1177;114340;-73
2021/11/20 17:11:17;;;;;;;24.70;12.57;;;;;;;12.04;100.00;99974.85;714691;1176;113855;-74
2021/11/20 17:26:23;;;;;;;28.05;16.90;;;;;;;12.10;100.00;99963.73;714677;1177;114098;-74
2021/11/20 17:41:25;;;;;;;30.43;14.40;;;;;;;11.98;100.00;99959.67;714516;1177;114558;-74
2021/11/20 17:56:28;;;;;;;31.17;13.43;;;;;;;11.84;100.00;99934.75;714232;1200;114495;-73
2021/11/20 18:11:31;;;;;;;33.90;12.20;;;;;;;11.57;100.00;99907.56;714190;1176;114292;-75
2021/11/20 18:26:34;;;;;;;34.73;15.33;;;;;;;11.31;100.00;99887.33;714381;1175;114369;-73
2021/11/20 18:41:37;;;;;;;25.93;11.45;;;;;;;11.28;100.00;99877.13;714364;1175;115006;-74
2021/11/20 18:56:39;;;;;;;63.18;32.25;;;;;;;11.33;100.00;99884.55;714315;1200;114928;-74
2021/11/20 19:11:43;;;;;;;43.85;19.18;;;;;;;11.42;100.00;99864.45;714342;1200;114914;-73
2021/11/20 19:26:51;;;;;;;23.00;11.03;;;;;;;11.62;100.00;99838.82;714284;1177;114815;-74
2021/11/20 19:41:55;;;;;;;26.43;12.55;;;;;;;11.38;100.00;99842.09;714116;1200;114170;-73
2021/11/20 19:57:00;;;;;;;28.28;11.88;;;;;;;11.51;100.00;99839.05;714296;1200;114830;-74
2021/11/20 20:12:03;;;;;;;21.63;9.60;;;;;;;11.61;100.00;99827.50;714652;1184;114230;-73
2021/11/20 20:27:08;;;;;;;17.48;8.40;;;;;;;11.53;100.00;99789.83;714295;1205;113913;-73
2021/11/20 20:42:10;;;;;;;17.30;9.70;;;;;;;11.36;100.00;99794.13;714392;1177;115702;-74
2021/11/20 20:57:16;;;;;;;15.30;8.20;;;;;;;11.45;100.00;99778.27;714621;1176;113892;-74
2021/11/20 21:12:19;;;;;;;18.90;9.20;;;;;;;11.38;100.00;99743.11;714275;1186;114772;-74
2021/11/20 21:27:23;;;;;;;12.85;6.80;;;;;;;11.33;100.00;99748.00;714285;1177;114093;-74
2021/11/20 21:42:25;;;;;;;13.13;6.77;;;;;;;11.41;100.00;99729.66;715506;1176;114058;-73
2021/11/20 21:57:28;;;;;;;10.35;6.40;;;;;;;11.29;100.00;99723.83;714493;1202;114014;-74
2021/11/20 22:12:38;;;;;;;9.48;6.08;;;;;;;11.20;100.00;99687.19;714322;1177;113951;-73
2021/11/20 22:27:54;;;;;;;11.85;5.40;;;;;;;11.23;100.00;99671.12;716401;1200;113820;-74
2021/11/20 22:43:01;;;;;;;9.63;5.93;;;;;;;11.24;100.00;99662.27;715222;1193;113945;-74
2021/11/20 22:58:07;;;;;;;11.93;7.50;;;;;;;11.14;100.00;99636.13;714208;1177;113599;-74
2021/11/20 23:13:10;;;;;;;15.33;6.97;;;;;;;11.06;100.00;99618.53;713780;1203;115268;-75
2021/11/20 23:28:12;;;;;;;10.00;7.33;;;;;;;11.00;100.00;99592.89;714903;1177;113855;-72
2021/11/20 23:43:15;;;;;;;12.03;7.40;;;;;;;11.14;100.00;99594.95;714698;1200;114345;-74
2021/11/20 23:58:17;;;;;;;13.38;8.18;;;;;;;11.00;100.00;99587.64;714076;1203;114645;-74
